Pahranagat National Wildlife Refuge, Nevada Weather observations

Data are for 10 minute period ending at time listed.
 Day   Time   Solar   Ave.   Ave.  Ave.  Vector  Max.   Baro.   Total    
  of    of     Rad.   Air    Rel.  Wind   Wind   Wind  Press.  Precip.   
Year   Day            Temp.  Hum.  Speed  Dir.   Gust                    
2015   (PST)  Kw/m2    F      %     mph   deg.    mph    mb.     in.     
-------------------------------------------------------------------------
 208   13:50   0.74   94.3    12    7.0   220    14.4   898.2    0.00 
 208   14:00   0.72   94.3    10    4.7   184    11.2   898.2    0.00 
 208   14:10   0.70   94.8    10    3.8   122     9.3   898.0    0.00 
 208   14:20   0.69   95.1    12    6.9   190    13.1   898.0    0.00 
 208   14:30   0.67   95.0    11    5.0   206     9.7   897.8    0.00 
 208   14:40   0.65   94.8    11    4.9   166     9.6   897.8    0.00 
 208   14:50   0.63   95.6    11    5.1   166    11.5   897.7    0.00 
 208   15:00   0.60   94.5    11    6.0   234    10.7   897.7    0.00 
 208   15:10   0.58   95.5    11    4.5   181     9.5   897.6    0.00 
 208   15:20   0.56   95.0    11    5.3   165    11.4   897.6    0.00 
 208   15:30   0.53   95.1     9    4.9   120    11.5   897.5    0.00 
 208   15:40   0.51   94.7    10    4.6    85    12.8   897.5    0.00 
 208   15:50   0.48   95.6    10    3.5   275    10.5   897.4    0.00 
 208   16:00   0.46   95.6    10    2.0    29     5.0   897.3    0.00 
 208   16:10   0.43   95.9    11    4.4   192    10.7   897.2    0.00 
 208   16:20   0.40   94.9    11    3.7   199     9.1   897.2    0.00 
 208   16:30   0.37   94.7    10    4.5   194    10.7   897.2    0.00 
 208   16:40   0.34   94.7    12    4.6   199     9.4   897.0    0.00 
 208   16:50   0.32   93.1    12    4.7   189    10.2   896.9    0.00 
 208   17:00   0.29   93.8    11    5.1   188    10.0   897.0    0.00 
 208   17:10   0.26   92.1    14    6.1   169    13.1   897.0    0.00 
 208   17:20   0.23   91.0    13    8.1   149    11.8   897.0    0.00 
 208   17:30   0.20   90.5    14    7.5   140    13.1   897.1    0.00 
 208   17:40   0.17   90.3    14    7.7   146    12.6   897.1    0.00 
 208   17:50   0.14   89.5    14    7.2   146    11.5   897.1    0.00 
 208   18:00   0.12   88.5    14    7.1   146    13.7   897.1    0.00 
 208   18:10   0.10   87.7    15    6.6   150     9.9   897.1    0.00 
 208   18:20   0.07   85.9    16    5.8   149     7.9   897.2    0.00 
 208   18:30   0.04   85.1    15    5.5   137     7.7   897.2    0.00 
 208   18:40   0.01   83.2    18    4.4   139     5.8   897.2    0.00 
 208   18:50   0.01   81.0    19    4.6   136     5.4   897.3    0.00 
 208   19:00   0.00   80.5    19    4.5   132     5.8   897.3    0.00 
 208   19:10   0.00   81.1    17    4.7   122     5.8   897.4    0.00 
 208   19:20   0.00   82.1    15    5.1   123     6.6   897.4    0.00 
 208   19:30   0.00   80.4    16    6.2   140     9.8   897.5    0.00 
 208   19:40   0.00   80.1    16    6.3   149     9.3   897.7    0.00 
 208   19:50   0.00   81.8    14    5.6   147    11.0   897.9    0.00 
 208   20:00   0.00   79.7    15    3.9   128     5.4   897.9    0.00 
 208   20:10   0.00   79.4    15    3.9   131     7.2   898.1    0.00 
 208   20:20   0.00   78.1    18    1.7   213     4.2   898.3    0.00 
 208   20:30   0.00   73.6    22    1.5   322     2.8   898.4    0.00 
 208   20:40   0.00   71.1    25    1.7   295     4.2   898.6    0.00 
 208   20:50   0.00   66.5    32    2.2   328     3.9   898.8    0.00 
 208   21:00   0.00   67.4    31    2.3   312     4.4   899.0    0.00 
 208   21:10   0.00   61.9    40    2.8     1     3.9   899.1    0.00 
 208   21:20   0.00   60.8    45    2.1   258     3.6   899.2    0.00 
 208   21:30   0.00   60.8    42    2.4   328     3.6   899.2    0.00 
 208   21:40   0.00   64.7    29    1.6    37     2.4   899.3    0.00 
 208   21:50   0.00   65.6    31    1.4   338     4.5   899.4    0.00 
 208   22:00   0.00   57.5    48    3.1   330     4.6   899.5    0.00 
 208   22:10   0.00   58.4    42    5.0   338     7.7   899.7    0.00 
 208   22:20   0.00   59.3    44    4.2   316     6.4   899.8    0.00 
 208   22:30   0.00   60.4    40    6.3   328     9.2   899.8    0.00 
 208   22:40   0.00   65.5    28    5.1   334     8.3   899.9    0.00 
 208   22:50   0.00   63.5    31    4.5   292     7.8   900.1    0.00 
 208   23:00   0.00   67.6    22    4.1   356     8.2   900.1    0.00 
 208   23:10   0.00   67.6    22    4.3   328     8.8   900.2    0.00 
 208   23:20   0.00   67.1    22    5.4   316     9.1   900.3    0.00 
 208   23:30   0.00   65.9    24    2.4   288     4.4   900.4    0.00 
 208   23:40   0.00   62.0    32    4.0   273     5.2   900.5    0.00 
 208   23:50   0.00   60.6    34    1.0   310     2.9   900.6    0.00 
 209    0:00   0.00   61.1    32    1.3    28     3.1   900.6    0.00 
 209    0:10   0.00   64.9    25    3.6     8     5.9   900.6    0.00 
 209    0:20   0.00   64.7    26    4.8   352     6.2   900.6    0.00 
 209    0:30   0.00   65.9    25    5.1   354     8.2   900.7    0.00 
 209    0:40   0.00   68.8    22    6.5   351    10.6   900.8    0.00 
 209    0:50   0.00   70.8    19    7.3   352    12.5   900.9    0.00 
 209    1:00   0.00   70.4    20    6.0   352    10.4   901.0    0.00 
 209    1:10   0.00   71.4    18    6.0     4     9.5   901.1    0.00 
 209    1:20   0.00   71.8    18    7.1   354    10.7   901.1    0.00 
 209    1:30   0.00   71.9    19    6.8   340    11.4   901.1    0.00 
 209    1:40   0.00   70.3    21    6.5   340    10.6   901.2    0.00 
 209    1:50   0.00   70.3    21    6.8   342    10.7   901.2    0.00 
 209    2:00   0.00   70.4    21    6.7   347    11.2   901.3    0.00 
 209    2:10   0.00   71.2    20    8.7   348    13.9   901.4    0.00 
 209    2:20   0.00   71.0    20    7.6   346    12.5   901.4    0.00 
 209    2:30   0.00   70.5    21    8.4   335    13.4   901.4    0.00 
 209    2:40   0.00   70.3    21    8.6   337    13.3   901.6    0.00 
 209    2:50   0.00   70.3    21    9.2   336    15.3   901.7    0.00 
 209    3:00   0.00   69.9    22    7.5   344    12.1   901.8    0.00 
 209    3:10   0.00   69.0    23    7.4   337    11.5   901.8    0.00 
 209    3:20   0.00   68.3    25    6.4   344     9.9   902.0    0.00 
 209    3:30   0.00   67.7    25    6.3   352     9.2   902.1    0.00 
 209    3:40   0.00   67.9    25    6.4   350    10.2   902.2    0.00 
 209    3:50   0.00   67.7    25    6.4   346    10.0   902.4    0.00 
 209    4:00   0.00   67.6    26    7.1   340    11.0   902.6    0.00 
 209    4:10   0.00   68.1    25    7.3   345    10.5   902.8    0.00 
 209    4:20   0.00   68.4    24    6.7   350    11.4   902.9    0.00 
 209    4:30   0.00   68.4    25    7.4   347    13.8   903.0    0.00 
 209    4:40   0.00   68.0    25    6.8   342    10.7   903.2    0.00 
 209    4:50   0.01   67.6    26    7.3   339    11.4   903.3    0.00 
 209    5:00   0.01   67.4    27    6.5   351    10.7   903.5    0.00 
 209    5:10   0.03   67.5    26    7.2   354    10.8   903.5    0.00 
 209    5:20   0.05   68.7    25    7.0   358    11.4   903.7    0.00 
 209    5:30   0.07   69.1    25    7.0   357    11.5   903.7    0.00 
 209    5:40   0.09   70.0    24    7.3   355    11.5   903.7    0.00 
 209    5:50   0.11   70.8    24    8.0   350    12.3   903.8    0.00 
 209    6:00   0.14   71.3    24    8.2   343    13.2   903.8    0.00 
 209    6:10   0.16   71.9    24    8.3   344    14.6   903.8    0.00 
 209    6:20   0.19   72.6    23    9.3   344    13.2   903.9    0.00 
 209    6:30   0.22   73.2    23    9.1   338    14.3   903.9    0.00 
 209    6:40   0.24   74.0    23    8.7   343    13.2   904.0    0.00 
 209    6:50   0.27   74.6    24    9.0   340    15.9   904.0    0.00 
 209    7:00   0.30   75.2    23   10.1   345    16.4   904.1    0.00 
 209    7:10   0.33   76.1    23    9.4   340    15.1   904.1    0.00 
 209    7:20   0.36   76.7    23    9.5   340    16.1   904.1    0.00 
 209    7:30   0.39   77.1    23    9.8   336    15.1   904.0    0.00 
 209    7:40   0.41   77.8    22   10.5   340    15.9   903.9    0.00 
 209    7:50   0.44   78.3    22   10.4   334    16.0   903.8    0.00 
 209    8:00   0.46   79.1    22    9.4   334    14.5   903.8    0.00 
 209    8:10   0.49   80.0    21    9.5   338    15.0   903.7    0.00 
 209    8:20   0.52   80.6    21    9.9   337    15.6   903.6    0.00 
 209    8:30   0.54   81.3    21    9.2   329    14.4   903.6    0.00 
 209    8:40   0.56   82.2    21    8.2   334    14.1   903.5    0.00 
 209    8:50   0.58   82.7    20    8.4   330    15.0   903.5    0.00 
 209    9:00   0.60   83.0    19    8.2   327    13.2   903.5    0.00 
 209    9:10   0.62   83.7    18    7.7   322    14.1   903.4    0.00 
 209    9:20   0.65   84.4    20    7.3   325    12.3   903.4    0.00 
 209    9:30   0.66   85.3    18    5.1   325     9.7   903.4    0.00 
 209    9:40   0.68   86.1    18    5.2   336     9.3   903.4    0.00 
 209    9:50   0.70   86.3    18    6.3   331    12.3   903.3    0.00 
 209   10:00   0.71   86.3    18    6.9   325    12.3   903.3    0.00 
 209   10:10   0.73   87.0    17    5.3   328    11.0   903.3    0.00 
 209   10:20   0.74   87.8    18    5.0   321    11.0   903.2    0.00 
 209   10:30   0.75   88.1    16    6.4   304    12.3   903.2    0.00 
 209   10:40   0.77   88.2    16    5.7   307    10.7   903.3    0.00 
 209   10:50   0.78   88.8    15    4.8   315    10.8   903.2    0.00 
 209   11:00   0.78   89.4    15    4.6   311     8.8   903.2    0.00 
 209   11:10   0.79   89.6    15    5.1   312    11.9   903.2    0.00 
 209   11:20   0.80   89.8    16    4.7   333     9.1   903.1    0.00 
 209   11:30   0.80   90.5    14    4.6   232     8.6   903.0    0.00 
 209   11:40   0.81   91.4    14    3.7   218     7.1   902.9    0.00 
 209   11:50   0.81   91.8    14    2.5   332     6.7   902.8    0.00 
 209   12:00   0.81   92.1    14    2.3   234     6.7   902.8    0.00 
 209   12:10   0.81   92.7    14    3.5   238    20.7   902.7    0.00 
 209   12:20   0.81   92.9    14    4.9   164     8.8   902.7    0.00 
 209   12:30   0.80   92.8    14    3.4   119     9.7   902.6    0.00 
 209   12:40   0.80   93.4    13    3.1   203    10.9   902.5    0.00 
 209   12:50   0.79   93.5    14    4.6   186     9.6   902.4    0.00 
 209   13:00   0.79   93.8    12    2.1   195     5.6   902.4    0.00 
 209   13:10   0.78   93.8    12    2.9   226     8.3   902.3    0.00 
 209   13:20   0.77   94.1    13    2.8   282     9.9   902.1    0.00 
 209   13:30   0.76   93.4    11    3.8   296     8.0   902.1    0.00 
 209   13:40   0.74   94.1    11    2.7   356     5.3   901.9    0.00 

Return to Pahranagat N. Wildlife Refuge graphs page.


Western Regional Climate Center,wrcc@dri.edu